sensor_id;sensor_type;location;lat;lon;timestamp;pressure;altitude;pressure_sealevel;temperature;humidity
80308;BME280;69616;43.522;1.348;2023-09-19T00:02:17;100319.00;;;20.03;60.35
80308;BME280;69616;43.522;1.348;2023-09-19T00:04:43;100321.69;;;20.03;60.78
80308;BME280;69616;43.522;1.348;2023-09-19T00:07:08;100318.22;;;20.01;60.69
80308;BME280;69616;43.522;1.348;2023-09-19T00:09:37;100325.63;;;19.94;60.86
80308;BME280;69616;43.522;1.348;2023-09-19T00:12:06;100323.19;;;19.88;61.29
80308;BME280;69616;43.522;1.348;2023-09-19T00:14:32;100318.81;;;19.86;61.06
80308;BME280;69616;43.522;1.348;2023-09-19T00:17:01;100325.09;;;19.85;61.33
80308;BME280;69616;43.522;1.348;2023-09-19T00:19:32;100326.97;;;19.83;61.70
80308;BME280;69616;43.522;1.348;2023-09-19T00:21:58;100325.50;;;19.75;61.83
80308;BME280;69616;43.522;1.348;2023-09-19T00:24:23;100324.63;;;19.75;61.72
80308;BME280;69616;43.522;1.348;2023-09-19T00:26:49;100324.63;;;19.75;61.58
80308;BME280;69616;43.522;1.348;2023-09-19T00:29:14;100322.03;;;19.73;61.71
80308;BME280;69616;43.522;1.348;2023-09-19T00:31:44;100320.16;;;19.75;61.70
80308;BME280;69616;43.522;1.348;2023-09-19T00:34:09;100317.63;;;19.72;61.68
80308;BME280;69616;43.522;1.348;2023-09-19T00:36:36;100322.88;;;19.74;61.56
80308;BME280;69616;43.522;1.348;2023-09-19T00:39:04;100315.78;;;19.73;61.68
80308;BME280;69616;43.522;1.348;2023-09-19T00:41:31;100324.75;;;19.72;61.94
80308;BME280;69616;43.522;1.348;2023-09-19T00:43:57;100317.66;;;19.71;61.90
80308;BME280;69616;43.522;1.348;2023-09-19T00:46:22;100328.66;;;19.63;62.19
80308;BME280;69616;43.522;1.348;2023-09-19T00:48:48;100324.50;;;19.56;62.13
80308;BME280;69616;43.522;1.348;2023-09-19T00:51:15;100327.31;;;19.53;62.52
80308;BME280;69616;43.522;1.348;2023-09-19T00:53:45;100329.00;;;19.55;62.09
80308;BME280;69616;43.522;1.348;2023-09-19T00:56:11;100333.44;;;19.55;62.09
80308;BME280;69616;43.522;1.348;2023-09-19T00:58:37;100333.44;;;19.55;62.00
80308;BME280;69616;43.522;1.348;2023-09-19T01:01:04;100329.03;;;19.54;62.22
80308;BME280;69616;43.522;1.348;2023-09-19T01:03:33;100330.09;;;19.49;62.16
80308;BME280;69616;43.522;1.348;2023-09-19T01:05:59;100321.28;;;19.47;62.41
80308;BME280;69616;43.522;1.348;2023-09-19T01:08:25;100324.00;;;19.46;62.87
80308;BME280;69616;43.522;1.348;2023-09-19T01:11:11;100319.59;;;19.45;63.02
80308;BME280;69616;43.522;1.348;2023-09-19T01:17:09;100318.78;;;19.43;62.62
80308;BME280;69616;43.522;1.348;2023-09-19T01:24:54;100325.88;;;19.44;62.79
80308;BME280;69616;43.522;1.348;2023-09-19T01:30:22;100318.03;;;19.39;63.25
80308;BME280;69616;43.522;1.348;2023-09-19T01:32:50;100319.16;;;19.33;63.45
80308;BME280;69616;43.522;1.348;2023-09-19T01:35:18;100317.66;;;19.26;63.23
80308;BME280;69616;43.522;1.348;2023-09-19T01:37:44;100317.91;;;19.20;63.88
80308;BME280;69616;43.522;1.348;2023-09-19T01:40:12;100323.41;;;19.15;63.83
80308;BME280;69616;43.522;1.348;2023-09-19T01:42:50;100318.19;;;19.12;63.97
80308;BME280;69616;43.522;1.348;2023-09-19T01:47:54;100312.72;;;19.15;63.74
80308;BME280;69616;43.522;1.348;2023-09-19T01:54:00;100306.19;;;19.00;64.00
80308;BME280;69616;43.522;1.348;2023-09-19T01:56:50;100306.66;;;18.88;64.58
80308;BME280;69616;43.522;1.348;2023-09-19T01:59:24;100296.22;;;18.82;64.40
80308;BME280;69616;43.522;1.348;2023-09-19T02:01:53;100298.97;;;18.78;64.69
80308;BME280;69616;43.522;1.348;2023-09-19T02:04:20;100300.66;;;18.81;64.74
80308;BME280;69616;43.522;1.348;2023-09-19T02:06:45;100306.81;;;18.83;64.49
80308;BME280;69616;43.522;1.348;2023-09-19T02:09:13;100302.28;;;18.85;64.31
80308;BME280;69616;43.522;1.348;2023-09-19T02:11:39;100300.50;;;18.86;64.56
80308;BME280;69616;43.522;1.348;2023-09-19T02:14:06;100301.31;;;18.88;64.50
80308;BME280;69616;43.522;1.348;2023-09-19T02:16:34;100301.31;;;18.88;64.26
80308;BME280;69616;43.522;1.348;2023-09-19T02:18:59;100299.50;;;18.88;64.43
80308;BME280;69616;43.522;1.348;2023-09-19T02:21:25;100296.84;;;18.88;64.22
80308;BME280;69616;43.522;1.348;2023-09-19T02:23:52;100297.75;;;18.87;64.09
80308;BME280;69616;43.522;1.348;2023-09-19T02:26:17;100294.25;;;18.87;64.45
80308;BME280;69616;43.522;1.348;2023-09-19T02:28:45;100297.84;;;18.86;64.11
80308;BME280;69616;43.522;1.348;2023-09-19T02:31:11;100291.84;;;18.79;64.43
80308;BME280;69616;43.522;1.348;2023-09-19T02:33:37;100292.16;;;18.71;64.65
80308;BME280;69616;43.522;1.348;2023-09-19T02:36:02;100285.31;;;18.64;64.94
80308;BME280;69616;43.522;1.348;2023-09-19T02:38:29;100288.13;;;18.59;65.00
80308;BME280;69616;43.522;1.348;2023-09-19T02:40:55;100291.91;;;18.54;65.20
80308;BME280;69616;43.522;1.348;2023-09-19T02:43:23;100296.50;;;18.50;65.63
80308;BME280;69616;43.522;1.348;2023-09-19T02:45:49;100283.28;;;18.47;65.52
80308;BME280;69616;43.522;1.348;2023-09-19T02:48:16;100287.84;;;18.43;65.53
80308;BME280;69616;43.522;1.348;2023-09-19T02:50:42;100285.34;;;18.39;65.98
80308;BME280;69616;43.522;1.348;2023-09-19T02:53:07;100285.53;;;18.34;65.84
80308;BME280;69616;43.522;1.348;2023-09-19T02:55:33;100281.19;;;18.30;66.02
80308;BME280;69616;43.522;1.348;2023-09-19T02:57:59;100273.31;;;18.27;66.00
80308;BME280;69616;43.522;1.348;2023-09-19T03:00:25;100272.50;;;18.25;66.20
80308;BME280;69616;43.522;1.348;2023-09-19T03:02:56;100272.66;;;18.20;66.40
80308;BME280;69616;43.522;1.348;2023-09-19T03:05:22;100266.63;;;18.15;66.24
80308;BME280;69616;43.522;1.348;2023-09-19T03:07:49;100264.84;;;18.15;66.34
80308;BME280;69616;43.522;1.348;2023-09-19T03:10:19;100264.84;;;18.15;66.20
80308;BME280;69616;43.522;1.348;2023-09-19T03:12:46;100269.28;;;18.15;66.26
80308;BME280;69616;43.522;1.348;2023-09-19T03:15:11;100269.19;;;18.18;66.17
80308;BME280;69616;43.522;1.348;2023-09-19T03:17:37;100265.50;;;18.22;65.95
80308;BME280;69616;43.522;1.348;2023-09-19T03:20:03;100272.50;;;18.25;65.96
80308;BME280;69616;43.522;1.348;2023-09-19T03:22:29;100267.25;;;18.23;65.90
80308;BME280;69616;43.522;1.348;2023-09-19T03:24:55;100274.31;;;18.24;65.73
80308;BME280;69616;43.522;1.348;2023-09-19T03:27:20;100270.84;;;18.22;65.74
80308;BME280;69616;43.522;1.348;2023-09-19T03:29:49;100275.28;;;18.21;65.75
80308;BME280;69616;43.522;1.348;2023-09-19T03:32:14;100270.84;;;18.22;65.74
80308;BME280;69616;43.522;1.348;2023-09-19T03:34:40;100276.16;;;18.22;65.90
80308;BME280;69616;43.522;1.348;2023-09-19T03:37:07;100272.66;;;18.20;65.69
80308;BME280;69616;43.522;1.348;2023-09-19T03:39:33;100271.97;;;18.15;65.87
80308;BME280;69616;43.522;1.348;2023-09-19T03:41:59;100271.25;;;18.10;66.06
80308;BME280;69616;43.522;1.348;2023-09-19T03:44:24;100268.75;;;18.05;66.13
80308;BME280;69616;43.522;1.348;2023-09-19T03:46:49;100263.69;;;17.97;66.52
80308;BME280;69616;43.522;1.348;2023-09-19T03:49:15;100265.59;;;17.92;66.85
80308;BME280;69616;43.522;1.348;2023-09-19T03:51:40;100265.72;;;17.89;66.69
80308;BME280;69616;43.522;1.348;2023-09-19T03:54:07;100268.38;;;17.89;66.52
80308;BME280;69616;43.522;1.348;2023-09-19T03:56:32;100273.66;;;17.90;66.57
80308;BME280;69616;43.522;1.348;2023-09-19T03:58:58;100268.28;;;17.92;66.48
80308;BME280;69616;43.522;1.348;2023-09-19T04:01:23;100264.75;;;17.91;66.34
80308;BME280;69616;43.522;1.348;2023-09-19T04:03:48;100261.16;;;17.92;66.41
80308;BME280;69616;43.522;1.348;2023-09-19T04:06:16;100262.91;;;17.93;66.09
80308;BME280;69616;43.522;1.348;2023-09-19T04:08:42;100255.75;;;17.94;66.34
80308;BME280;69616;43.522;1.348;2023-09-19T04:11:08;100263.06;;;17.89;66.33
80308;BME280;69616;43.522;1.348;2023-09-19T04:13:34;100263.38;;;17.79;66.51
80308;BME280;69616;43.522;1.348;2023-09-19T04:15:59;100260.09;;;17.71;66.84
80308;BME280;69616;43.522;1.348;2023-09-19T04:18:25;100260.41;;;17.62;66.99
80308;BME280;69616;43.522;1.348;2023-09-19T04:20:51;100258.88;;;17.55;67.29
80308;BME280;69616;43.522;1.348;2023-09-19T04:23:16;100256.38;;;17.50;67.23
80308;BME280;69616;43.522;1.348;2023-09-19T04:25:42;100256.56;;;17.44;67.38
80308;BME280;69616;43.522;1.348;2023-09-19T04:28:08;100261.91;;;17.44;67.65
80308;BME280;69616;43.522;1.348;2023-09-19T04:30:36;100264.41;;;17.48;67.39
80308;BME280;69616;43.522;1.348;2023-09-19T04:33:02;100260.78;;;17.51;67.22
80308;BME280;69616;43.522;1.348;2023-09-19T04:35:29;100260.66;;;17.54;67.03
80308;BME280;69616;43.522;1.348;2023-09-19T04:37:57;100258.09;;;17.51;67.19
80308;BME280;69616;43.522;1.348;2023-09-19T04:40:22;100264.50;;;17.45;67.32
80308;BME280;69616;43.522;1.348;2023-09-19T04:42:56;100259.28;;;17.42;67.49
80308;BME280;69616;43.522;1.348;2023-09-19T04:45:24;100256.69;;;17.41;67.42
80308;BME280;69616;43.522;1.348;2023-09-19T04:47:50;100262.84;;;17.41;67.45
80308;BME280;69616;43.522;1.348;2023-09-19T04:50:16;100257.44;;;17.44;67.38
80308;BME280;69616;43.522;1.348;2023-09-19T04:52:43;100250.44;;;17.42;67.34
80308;BME280;69616;43.522;1.348;2023-09-19T04:55:15;100261.22;;;17.37;67.42
80308;BME280;69616;43.522;1.348;2023-09-19T04:57:45;100261.22;;;17.37;67.26
80308;BME280;69616;43.522;1.348;2023-09-19T05:00:14;100259.47;;;17.36;67.43
80308;BME280;69616;43.522;1.348;2023-09-19T05:02:41;100259.47;;;17.36;67.49
80308;BME280;69616;43.522;1.348;2023-09-19T05:05:10;100263.16;;;17.32;67.65
80308;BME280;69616;43.522;1.348;2023-09-19T05:07:38;100265.13;;;17.27;67.70
80308;BME280;69616;43.522;1.348;2023-09-19T05:10:04;100268.75;;;17.22;67.82
80308;BME280;69616;43.522;1.348;2023-09-19T05:12:34;100269.75;;;17.20;67.98
80308;BME280;69616;43.522;1.348;2023-09-19T05:15:01;100274.16;;;17.21;67.92
80308;BME280;69616;43.522;1.348;2023-09-19T05:17:27;100274.03;;;17.26;67.63
80308;BME280;69616;43.522;1.348;2023-09-19T05:19:52;100275.69;;;17.28;67.57
80308;BME280;69616;43.522;1.348;2023-09-19T05:22:18;100281.00;;;17.28;67.56
80308;BME280;69616;43.522;1.348;2023-09-19T05:24:43;100273.91;;;17.29;67.66
80308;BME280;69616;43.522;1.348;2023-09-19T05:27:13;100287.31;;;17.26;67.70
80308;BME280;69616;43.522;1.348;2023-09-19T05:29:39;100288.31;;;17.21;67.67
80308;BME280;69616;43.522;1.348;2023-09-19T05:32:05;100291.06;;;17.18;67.85
80308;BME280;69616;43.522;1.348;2023-09-19T05:34:30;100292.00;;;17.17;67.88
80308;BME280;69616;43.522;1.348;2023-09-19T05:36:56;100294.66;;;17.17;67.78
80308;BME280;69616;43.522;1.348;2023-09-19T05:39:21;100292.88;;;17.18;67.69
80308;BME280;69616;43.522;1.348;2023-09-19T05:41:48;100297.22;;;17.20;67.77
80308;BME280;69616;43.522;1.348;2023-09-19T05:44:13;100302.53;;;17.20;67.67
80308;BME280;69616;43.522;1.348;2023-09-19T05:46:39;100293.75;;;17.18;67.74
80308;BME280;69616;43.522;1.348;2023-09-19T05:49:05;100299.06;;;17.18;67.59
80308;BME280;69616;43.522;1.348;2023-09-19T05:51:30;100307.13;;;17.15;67.54
80308;BME280;69616;43.522;1.348;2023-09-19T05:53:56;100308.16;;;17.11;67.85
80308;BME280;69616;43.522;1.348;2023-09-19T05:56:21;100315.31;;;17.09;67.92
80308;BME280;69616;43.522;1.348;2023-09-19T05:58:46;100318.91;;;17.08;67.95
80308;BME280;69616;43.522;1.348;2023-09-19T06:01:12;100317.16;;;17.07;67.87
80308;BME280;69616;43.522;1.348;2023-09-19T06:03:38;100324.09;;;17.13;67.89
80308;BME280;69616;43.522;1.348;2023-09-19T06:06:03;100320.34;;;17.18;67.62
80308;BME280;69616;43.522;1.348;2023-09-19T06:08:32;100317.13;;;17.37;66.74
80308;BME280;69616;43.522;1.348;2023-09-19T06:10:58;100320.06;;;17.56;66.58
80308;BME280;69616;43.522;1.348;2023-09-19T06:13:24;100315.19;;;17.69;66.06
80308;BME280;69616;43.522;1.348;2023-09-19T06:15:51;100329.97;;;17.79;65.96
80308;BME280;69616;43.522;1.348;2023-09-19T06:18:17;100329.66;;;17.89;65.71
80308;BME280;69616;43.522;1.348;2023-09-19T06:20:47;100325.16;;;17.91;65.82
80308;BME280;69616;43.522;1.348;2023-09-19T06:23:13;100325.09;;;17.92;65.66
80308;BME280;69616;43.522;1.348;2023-09-19T06:25:39;100326.69;;;17.98;65.76
80308;BME280;69616;43.522;1.348;2023-09-19T06:28:06;100321.94;;;18.08;65.53
80308;BME280;69616;43.522;1.348;2023-09-19T06:30:33;100320.63;;;18.20;64.93
80308;BME280;69616;43.522;1.348;2023-09-19T06:33:00;100319.28;;;18.33;64.72
80308;BME280;69616;43.522;1.348;2023-09-19T06:35:26;100324.13;;;18.47;64.40
80308;BME280;69616;43.522;1.348;2023-09-19T06:37:54;100326.97;;;18.67;63.94
80308;BME280;69616;43.522;1.348;2023-09-19T06:40:22;100319.34;;;18.81;63.51
80308;BME280;69616;43.522;1.348;2023-09-19T06:42:51;100320.72;;;18.91;63.45
80308;BME280;69616;43.522;1.348;2023-09-19T06:45:18;100323.13;;;18.99;63.58
80308;BME280;69616;43.522;1.348;2023-09-19T06:47:44;100319.13;;;19.11;63.13
80308;BME280;69616;43.522;1.348;2023-09-19T06:50:11;100311.47;;;19.26;63.31
80308;BME280;69616;43.522;1.348;2023-09-19T06:52:42;100311.75;;;19.40;62.94
80308;BME280;69616;43.522;1.348;2023-09-19T06:55:08;100312.03;;;19.56;62.48
80308;BME280;69616;43.522;1.348;2023-09-19T06:57:35;100308.34;;;19.59;62.46
80308;BME280;69616;43.522;1.348;2023-09-19T07:00:01;100305.75;;;19.57;62.31
80308;BME280;69616;43.522;1.348;2023-09-19T07:02:27;100300.28;;;19.60;62.24
80308;BME280;69616;43.522;1.348;2023-09-19T07:04:52;100308.94;;;19.67;61.87
80308;BME280;69616;43.522;1.348;2023-09-19T07:07:18;100304.66;;;19.84;61.90
80308;BME280;69616;43.522;1.348;2023-09-19T07:09:43;100308.31;;;20.03;61.42
80308;BME280;69616;43.522;1.348;2023-09-19T07:12:08;100302.03;;;20.25;60.91
80308;BME280;69616;43.522;1.348;2023-09-19T07:14:34;100300.56;;;20.39;60.59
80308;BME280;69616;43.522;1.348;2023-09-19T07:16:59;100297.47;;;20.48;60.29
80308;BME280;69616;43.522;1.348;2023-09-19T07:19:28;100296.25;;;20.55;60.31
80308;BME280;69616;43.522;1.348;2023-09-19T07:21:55;100298.53;;;20.64;60.08
80308;BME280;69616;43.522;1.348;2023-09-19T07:24:20;100294.78;;;20.69;59.81
80308;BME280;69616;43.522;1.348;2023-09-19T07:26:49;100294.03;;;20.65;60.03
80308;BME280;69616;43.522;1.348;2023-09-19T07:29:15;100296.91;;;20.60;60.14
80308;BME280;69616;43.522;1.348;2023-09-19T07:31:40;100297.75;;;20.62;60.29
80308;BME280;69616;43.522;1.348;2023-09-19T07:34:05;100294.34;;;20.78;60.46
80308;BME280;69616;43.522;1.348;2023-09-19T07:36:34;100304.38;;;20.93;60.11
80308;BME280;69616;43.522;1.348;2023-09-19T07:38:59;100306.69;;;21.01;59.98
80308;BME280;69616;43.522;1.348;2023-09-19T07:41:25;100306.41;;;21.07;59.83
80308;BME280;69616;43.522;1.348;2023-09-19T07:43:50;100307.78;;;21.16;59.81
80308;BME280;69616;43.522;1.348;2023-09-19T07:46:16;100300.88;;;21.30;59.66
80308;BME280;69616;43.522;1.348;2023-09-19T07:48:41;100309.09;;;21.44;59.47
80308;BME280;69616;43.522;1.348;2023-09-19T07:51:09;100300.38;;;21.58;58.83
80308;BME280;69616;43.522;1.348;2023-09-19T07:53:35;100304.47;;;21.67;58.79
80308;BME280;69616;43.522;1.348;2023-09-19T07:56:08;100301.47;;;21.73;58.67
80308;BME280;69616;43.522;1.348;2023-09-19T07:58:34;100305.44;;;21.84;58.71
80308;BME280;69616;43.522;1.348;2023-09-19T08:01:07;100310.16;;;21.96;58.32
80308;BME280;69616;43.522;1.348;2023-09-19T08:03:34;100308.03;;;22.03;58.31
80308;BME280;69616;43.522;1.348;2023-09-19T08:06:00;100313.16;;;22.07;58.45
80308;BME280;69616;43.522;1.348;2023-09-19T08:08:27;100319.94;;;22.15;58.48
80308;BME280;69616;43.522;1.348;2023-09-19T08:10:58;100317.25;;;22.32;58.27
80308;BME280;69616;43.522;1.348;2023-09-19T08:13:24;100318.56;;;22.59;58.17
80308;BME280;69616;43.522;1.348;2023-09-19T08:15:50;100314.28;;;22.72;57.69
80308;BME280;69616;43.522;1.348;2023-09-19T08:18:16;100313.78;;;22.82;57.47
80308;BME280;69616;43.522;1.348;2023-09-19T08:20:42;100312.94;;;22.97;57.22
80308;BME280;69616;43.522;1.348;2023-09-19T08:23:08;100311.56;;;23.22;56.63
80308;BME280;69616;43.522;1.348;2023-09-19T08:25:33;100318.69;;;23.39;55.83
80308;BME280;69616;43.522;1.348;2023-09-19T08:27:59;100321.78;;;23.47;55.65
80308;BME280;69616;43.522;1.348;2023-09-19T08:30:27;100327.50;;;23.57;56.08
80308;BME280;69616;43.522;1.348;2023-09-19T08:32:58;100324.03;;;23.71;55.83
80308;BME280;69616;43.522;1.348;2023-09-19T08:35:24;100323.81;;;23.90;55.69
80308;BME280;69616;43.522;1.348;2023-09-19T08:37:49;100328.59;;;24.01;55.53
80308;BME280;69616;43.522;1.348;2023-09-19T08:40:16;100328.81;;;24.13;55.31
80308;BME280;69616;43.522;1.348;2023-09-19T08:42:54;100317.97;;;24.29;55.23
80308;BME280;69616;43.522;1.348;2023-09-19T08:45:24;100321.97;;;24.52;54.49
80308;BME280;69616;43.522;1.348;2023-09-19T08:48:23;100311.97;;;24.54;54.02
80308;BME280;69616;43.522;1.348;2023-09-19T08:51:03;100320.13;;;24.52;53.93
80308;BME280;69616;43.522;1.348;2023-09-19T08:53:39;100314.47;;;24.72;53.96
80308;BME280;69616;43.522;1.348;2023-09-19T08:56:09;100315.94;;;24.92;53.56
80308;BME280;69616;43.522;1.348;2023-09-19T08:58:46;100307.44;;;24.98;53.68
80308;BME280;69616;43.522;1.348;2023-09-19T09:01:17;100309.47;;;24.94;52.93
80308;BME280;69616;43.522;1.348;2023-09-19T09:03:50;100313.50;;;25.02;53.43
80308;BME280;69616;43.522;1.348;2023-09-19T09:06:16;100314.91;;;25.22;53.00
80308;BME280;69616;43.522;1.348;2023-09-19T09:08:44;100313.16;;;25.35;52.82
80308;BME280;69616;43.522;1.348;2023-09-19T09:11:10;100313.03;;;25.51;52.53
80308;BME280;69616;43.522;1.348;2023-09-19T09:13:36;100310.97;;;25.55;51.98
80308;BME280;69616;43.522;1.348;2023-09-19T09:16:02;100309.59;;;25.49;52.25
80308;BME280;69616;43.522;1.348;2023-09-19T09:18:28;100308.19;;;25.42;52.40
80308;BME280;69616;43.522;1.348;2023-09-19T09:20:56;100311.81;;;25.28;52.21
80308;BME280;69616;43.522;1.348;2023-09-19T09:23:22;100309.63;;;25.20;52.81
80308;BME280;69616;43.522;1.348;2023-09-19T09:28:19;100301.28;;;24.96;52.71
80308;BME280;69616;43.522;1.348;2023-09-19T09:30:45;100298.53;;;24.83;53.39
80308;BME280;69616;43.522;1.348;2023-09-19T09:33:12;100298.59;;;24.67;53.63
80308;BME280;69616;43.522;1.348;2023-09-19T09:35:59;100297.81;;;24.50;53.64
80308;BME280;69616;43.522;1.348;2023-09-19T09:38:47;100300.03;;;24.44;54.13
80308;BME280;69616;43.522;1.348;2023-09-19T09:41:36;100298.47;;;24.40;54.51
80308;BME280;69616;43.522;1.348;2023-09-19T09:44:22;100293.50;;;24.33;54.17
80308;BME280;69616;43.522;1.348;2023-09-19T09:46:48;100291.75;;;24.32;54.33
80308;BME280;69616;43.522;1.348;2023-09-19T09:49:24;100293.78;;;24.43;54.28
80308;BME280;69616;43.522;1.348;2023-09-19T09:52:06;100298.97;;;24.46;53.71
80308;BME280;69616;43.522;1.348;2023-09-19T09:54:34;100297.94;;;24.49;54.11
80308;BME280;69616;43.522;1.348;2023-09-19T09:57:07;100295.31;;;24.47;53.49
80308;BME280;69616;43.522;1.348;2023-09-19T09:59:55;100300.31;;;24.54;53.50
80308;BME280;69616;43.522;1.348;2023-09-19T10:02:29;100294.81;;;24.70;53.39
80308;BME280;69616;43.522;1.348;2023-09-19T10:04:59;100291.78;;;24.90;52.83
80308;BME280;69616;43.522;1.348;2023-09-19T10:07:32;100287.97;;;25.22;52.24
80308;BME280;69616;43.522;1.348;2023-09-19T10:10:04;100282.63;;;25.49;51.12
80308;BME280;69616;43.522;1.348;2023-09-19T10:12:47;100276.53;;;25.73;50.30
80308;BME280;69616;43.522;1.348;2023-09-19T10:15:16;100275.63;;;26.00;49.11
80308;BME280;69616;43.522;1.348;2023-09-19T10:17:43;100270.31;;;26.12;49.68
80308;BME280;69616;43.522;1.348;2023-09-19T10:20:15;100271.31;;;26.11;49.48
80308;BME280;69616;43.522;1.348;2023-09-19T10:23:05;100271.19;;;25.99;49.20
80308;BME280;69616;43.522;1.348;2023-09-19T10:25:36;100271.19;;;25.99;49.26
80308;BME280;69616;43.522;1.348;2023-09-19T10:28:02;100274.53;;;26.16;49.28
80308;BME280;69616;43.522;1.348;2023-09-19T10:30:32;100274.78;;;26.39;48.14
80308;BME280;69616;43.522;1.348;2023-09-19T10:33:04;100269.06;;;26.56;47.42
80308;BME280;69616;43.522;1.348;2023-09-19T10:35:32;100258.00;;;26.85;47.82
80308;BME280;69616;43.522;1.348;2023-09-19T10:38:00;100259.22;;;27.18;47.71
80308;BME280;69616;43.522;1.348;2023-09-19T10:40:29;100249.69;;;27.50;47.08
80308;BME280;69616;43.522;1.348;2023-09-19T10:43:03;100248.59;;;27.53;46.91
80308;BME280;69616;43.522;1.348;2023-09-19T10:45:31;100251.81;;;27.58;46.16
80308;BME280;69616;43.522;1.348;2023-09-19T10:47:57;100242.84;;;27.57;45.92
80308;BME280;69616;43.522;1.348;2023-09-19T10:50:23;100235.44;;;27.35;46.06
80308;BME280;69616;43.522;1.348;2023-09-19T10:52:50;100235.06;;;27.28;46.16
80308;BME280;69616;43.522;1.348;2023-09-19T10:55:25;100237.41;;;27.33;46.11
80308;BME280;69616;43.522;1.348;2023-09-19T10:57:53;100221.75;;;27.49;45.13
80308;BME280;69616;43.522;1.348;2023-09-19T11:00:19;100229.72;;;27.64;44.41
80308;BME280;69616;43.522;1.348;2023-09-19T11:05:37;100226.34;;;27.96;44.32
80308;BME280;69616;43.522;1.348;2023-09-19T11:08:07;100225.94;;;27.78;44.16
80308;BME280;69616;43.522;1.348;2023-09-19T11:10:49;100224.06;;;27.67;44.10
80308;BME280;69616;43.522;1.348;2023-09-19T11:13:25;100217.25;;;27.86;44.19
80308;BME280;69616;43.522;1.348;2023-09-19T11:27:12;100192.53;;;28.82;41.64
80308;BME280;69616;43.522;1.348;2023-09-19T11:29:39;100196.03;;;29.05;40.66
80308;BME280;69616;43.522;1.348;2023-09-19T11:32:05;100196.47;;;28.77;40.56
80308;BME280;69616;43.522;1.348;2023-09-19T11:39:39;100186.28;;;27.54;41.96
80308;BME280;69616;43.522;1.348;2023-09-19T11:48:13;100178.38;;;27.98;41.79
80308;BME280;69616;43.522;1.348;2023-09-19T11:50:42;100176.19;;;28.26;41.02
80308;BME280;69616;43.522;1.348;2023-09-19T11:53:11;100178.78;;;28.50;40.81
80308;BME280;69616;43.522;1.348;2023-09-19T11:55:38;100178.84;;;28.72;40.26
80308;BME280;69616;43.522;1.348;2023-09-19T11:58:07;100172.59;;;28.83;40.20
80308;BME280;69616;43.522;1.348;2023-09-19T12:00:34;100169.19;;;29.02;39.48
80308;BME280;69616;43.522;1.348;2023-09-19T12:03:07;100169.44;;;29.10;39.18
80308;BME280;69616;43.522;1.348;2023-09-19T12:05:33;100164.69;;;29.23;39.04
80308;BME280;69616;43.522;1.348;2023-09-19T12:07:59;100165.63;;;29.34;38.13
80308;BME280;69616;43.522;1.348;2023-09-19T12:10:24;100158.94;;;29.38;38.45
80308;BME280;69616;43.522;1.348;2023-09-19T12:12:50;100162.63;;;29.48;38.23
80308;BME280;69616;43.522;1.348;2023-09-19T12:15:23;100147.53;;;29.56;38.28
80308;BME280;69616;43.522;1.348;2023-09-19T12:17:54;100157.31;;;29.68;37.68
80308;BME280;69616;43.522;1.348;2023-09-19T12:20:19;100150.13;;;29.78;37.13
80308;BME280;69616;43.522;1.348;2023-09-19T12:22:46;100141.44;;;29.85;36.06
80308;BME280;69616;43.522;1.348;2023-09-19T12:25:15;100141.44;;;29.85;37.61
80308;BME280;69616;43.522;1.348;2023-09-19T12:27:49;100139.34;;;29.98;37.94
80308;BME280;69616;43.522;1.348;2023-09-19T12:30:18;100135.75;;;30.19;37.24
80308;BME280;69616;43.522;1.348;2023-09-19T12:32:45;100137.81;;;30.36;37.18
80308;BME280;69616;43.522;1.348;2023-09-19T12:35:32;100132.09;;;30.40;37.37
80308;BME280;69616;43.522;1.348;2023-09-19T12:38:02;100126.56;;;30.51;37.40
80308;BME280;69616;43.522;1.348;2023-09-19T12:40:28;100123.09;;;30.49;36.57
80308;BME280;69616;43.522;1.348;2023-09-19T12:42:58;100122.09;;;30.50;37.31
80308;BME280;69616;43.522;1.348;2023-09-19T12:45:24;100117.13;;;30.55;36.58
80308;BME280;69616;43.522;1.348;2023-09-19T12:48:22;100113.09;;;30.49;36.43
80308;BME280;69616;43.522;1.348;2023-09-19T12:53:39;100097.56;;;30.71;35.99
80308;BME280;69616;43.522;1.348;2023-09-19T12:56:15;100095.44;;;30.75;36.29
80308;BME280;69616;43.522;1.348;2023-09-19T12:58:54;100094.16;;;30.79;35.85
80308;BME280;69616;43.522;1.348;2023-09-19T13:01:20;100086.56;;;30.92;35.75
80308;BME280;69616;43.522;1.348;2023-09-19T13:03:46;100080.84;;;30.96;35.58
80308;BME280;69616;43.522;1.348;2023-09-19T13:06:11;100074.69;;;30.93;35.65
80308;BME280;69616;43.522;1.348;2023-09-19T13:08:38;100071.97;;;30.93;35.04
80308;BME280;69616;43.522;1.348;2023-09-19T13:11:09;100073.41;;;30.88;35.13
80308;BME280;69616;43.522;1.348;2023-09-19T13:13:51;100060.25;;;30.73;35.00
80308;BME280;69616;43.522;1.348;2023-09-19T13:16:34;100056.22;;;30.68;35.82
80308;BME280;69616;43.522;1.348;2023-09-19T13:18:59;100052.09;;;30.63;35.28
80308;BME280;69616;43.522;1.348;2023-09-19T13:21:34;100051.31;;;30.51;34.95
80308;BME280;69616;43.522;1.348;2023-09-19T13:24:22;100047.44;;;30.34;35.06
80308;BME280;69616;43.522;1.348;2023-09-19T13:26:56;100047.16;;;30.38;35.05
80308;BME280;69616;43.522;1.348;2023-09-19T13:29:22;100043.84;;;30.34;35.23
80308;BME280;69616;43.522;1.348;2023-09-19T13:31:47;100050.97;;;30.25;34.62
80308;BME280;69616;43.522;1.348;2023-09-19T13:34:13;100046.44;;;30.26;34.93
80308;BME280;69616;43.522;1.348;2023-09-19T13:36:41;100039.31;;;30.34;34.65
80308;BME280;69616;43.522;1.348;2023-09-19T13:39:07;100036.44;;;30.36;34.69
80308;BME280;69616;43.522;1.348;2023-09-19T13:41:34;100034.16;;;30.41;34.71
80308;BME280;69616;43.522;1.348;2023-09-19T13:44:02;100028.88;;;30.59;34.57
80308;BME280;69616;43.522;1.348;2023-09-19T13:46:27;100024.19;;;30.71;34.87